createdAt,value
2023-03-15T00:02:23.641Z,11.14
2023-03-15T00:04:52.005Z,11.06
2023-03-15T00:07:25.799Z,11.09
2023-03-15T00:09:54.313Z,11.01
2023-03-15T00:12:25.722Z,11.11
2023-03-15T00:14:53.966Z,11.03
2023-03-15T00:17:22.895Z,10.91
2023-03-15T00:19:50.716Z,10.97
2023-03-15T00:22:18.353Z,10.90
2023-03-15T00:24:46.899Z,10.91
2023-03-15T00:27:14.428Z,10.82
2023-03-15T00:29:42.447Z,10.84
2023-03-15T00:32:10.975Z,10.82
2023-03-15T00:34:40.261Z,10.80
2023-03-15T00:37:08.171Z,10.72
2023-03-15T00:39:37.926Z,10.71
2023-03-15T00:42:09.125Z,10.58
2023-03-15T00:44:36.880Z,10.55
2023-03-15T00:47:05.383Z,10.52
2023-03-15T00:49:33.265Z,10.63
2023-03-15T00:52:03.094Z,10.66
2023-03-15T00:54:33.551Z,10.59
2023-03-15T00:57:02.325Z,10.67
2023-03-15T00:59:35.341Z,10.68
2023-03-15T01:02:03.254Z,10.60
2023-03-15T01:04:32.707Z,10.61
2023-03-15T01:07:00.967Z,10.57
2023-03-15T01:09:28.827Z,10.53
2023-03-15T01:11:56.831Z,10.57
2023-03-15T01:14:25.057Z,10.55
2023-03-15T01:16:53.030Z,10.30
2023-03-15T01:19:21.058Z,10.39
2023-03-15T01:21:48.746Z,10.44
2023-03-15T01:24:18.488Z,10.47
2023-03-15T01:26:46.617Z,10.51
2023-03-15T01:29:15.263Z,10.48
2023-03-15T01:31:43.716Z,10.52
2023-03-15T01:34:11.548Z,10.51
2023-03-15T01:36:39.622Z,10.44
2023-03-15T01:39:07.398Z,10.43
2023-03-15T01:41:42.238Z,10.27
2023-03-15T01:44:18.630Z,10.16
2023-03-15T01:46:48.118Z,10.07
2023-03-15T01:49:27.275Z,9.97
2023-03-15T01:52:18.746Z,9.87
2023-03-15T01:54:57.455Z,9.90
2023-03-15T01:57:30.769Z,9.92
2023-03-15T02:00:12.229Z,9.93
2023-03-15T02:03:14.558Z,9.96
2023-03-15T02:05:49.515Z,9.97
2023-03-15T02:08:32.926Z,9.92
2023-03-15T02:11:04.357Z,9.83
2023-03-15T02:13:34.941Z,9.79
2023-03-15T02:16:07.964Z,9.69
2023-03-15T02:18:45.464Z,9.65
2023-03-15T02:21:15.966Z,9.64
2023-03-15T02:23:46.508Z,9.61
2023-03-15T02:26:21.923Z,9.61
2023-03-15T02:28:50.674Z,9.79
2023-03-15T02:31:21.327Z,9.72
2023-03-15T02:33:52.846Z,9.72
2023-03-15T02:36:28.514Z,9.42
2023-03-15T02:38:56.869Z,9.41
2023-03-15T02:41:39.035Z,9.48
2023-03-15T02:44:33.954Z,9.46
2023-03-15T02:47:06.282Z,9.36
2023-03-15T02:49:40.330Z,9.33
2023-03-15T02:52:10.040Z,9.30
2023-03-15T02:54:39.388Z,9.23
2023-03-15T02:57:11.187Z,9.21
2023-03-15T02:59:39.787Z,9.17
2023-03-15T03:02:08.009Z,9.21
2023-03-15T03:04:35.609Z,9.16
2023-03-15T03:07:03.908Z,9.11
2023-03-15T03:09:43.269Z,9.14
2023-03-15T03:12:12.690Z,9.22
2023-03-15T03:14:43.357Z,9.21
2023-03-15T03:17:15.244Z,9.21
2023-03-15T03:19:43.917Z,9.19
2023-03-15T03:22:13.749Z,9.18
2023-03-15T03:24:46.013Z,9.24
2023-03-15T03:27:16.123Z,9.18
2023-03-15T03:29:46.692Z,9.16
2023-03-15T03:32:15.680Z,9.21
2023-03-15T03:34:48.637Z,9.17
2023-03-15T03:37:21.634Z,9.08
2023-03-15T03:39:55.668Z,8.99
2023-03-15T03:42:24.105Z,8.90
2023-03-15T03:44:54.518Z,8.88
2023-03-15T03:47:24.195Z,8.92
2023-03-15T03:49:51.999Z,8.96
2023-03-15T03:52:19.686Z,9.04
2023-03-15T03:54:48.384Z,9.00
2023-03-15T03:57:17.789Z,9.05
2023-03-15T03:59:45.520Z,9.11
2023-03-15T04:02:13.199Z,9.09
2023-03-15T04:04:45.679Z,9.04
2023-03-15T04:07:18.672Z,9.04
2023-03-15T04:09:46.693Z,8.92
2023-03-15T04:12:14.938Z,8.96
2023-03-15T04:14:46.416Z,8.89
2023-03-15T04:17:15.779Z,8.92
2023-03-15T04:19:47.011Z,8.90
2023-03-15T04:22:17.888Z,8.79
2023-03-15T04:25:02.132Z,8.85
2023-03-15T04:27:41.347Z,8.73
2023-03-15T04:30:30.936Z,8.77
2023-03-15T04:33:10.945Z,8.76
2023-03-15T04:35:59.232Z,8.58
2023-03-15T04:38:32.364Z,8.63
2023-03-15T04:41:11.168Z,8.66
2023-03-15T04:43:57.147Z,8.64
2023-03-15T04:46:36.219Z,8.58
2023-03-15T04:49:12.140Z,8.69
2023-03-15T04:52:12.716Z,8.38
2023-03-15T04:54:41.018Z,8.42
2023-03-15T04:57:26.552Z,8.53
2023-03-15T05:00:08.186Z,8.54
2023-03-15T05:02:47.584Z,8.57
2023-03-15T05:05:26.093Z,8.49
2023-03-15T05:07:57.375Z,8.48
2023-03-15T05:10:48.483Z,8.40
2023-03-15T05:13:39.031Z,8.37
2023-03-15T05:16:36.601Z,8.37
2023-03-15T05:19:21.885Z,8.16
2023-03-15T05:22:08.520Z,8.18
2023-03-15T05:24:58.779Z,8.21
2023-03-15T05:27:42.038Z,8.28
2023-03-15T05:30:24.523Z,8.22
2023-03-15T05:33:05.214Z,8.09
2023-03-15T05:35:55.631Z,8.13
2023-03-15T05:38:49.651Z,8.11
2023-03-15T05:41:38.037Z,8.09
2023-03-15T05:44:28.363Z,8.09
2023-03-15T05:47:14.517Z,7.93
2023-03-15T05:50:08.285Z,8.03
2023-03-15T05:52:57.975Z,8.14
2023-03-15T05:55:55.478Z,8.16
2023-03-15T05:58:41.451Z,8.01
2023-03-15T06:01:32.767Z,7.88
2023-03-15T06:04:15.161Z,8.02
2023-03-15T06:06:43.339Z,8.15
2023-03-15T06:09:12.245Z,8.22
2023-03-15T06:11:40.587Z,8.37
2023-03-15T06:14:12.032Z,8.41
2023-03-15T06:16:48.505Z,8.36
2023-03-15T06:19:17.182Z,8.44
2023-03-15T06:21:45.706Z,8.63
2023-03-15T06:24:21.520Z,9.13
2023-03-15T06:26:49.431Z,9.12
2023-03-15T06:29:18.304Z,9.46
2023-03-15T06:31:53.090Z,9.66
2023-03-15T06:34:21.614Z,9.80
2023-03-15T06:36:52.635Z,10.04
2023-03-15T06:39:21.165Z,10.02
2023-03-15T06:41:49.440Z,10.21
2023-03-15T06:44:22.155Z,10.18
2023-03-15T06:46:55.394Z,10.27
2023-03-15T06:49:23.727Z,10.41
2023-03-15T06:51:52.357Z,10.40
2023-03-15T06:54:20.309Z,10.61
2023-03-15T06:56:48.790Z,10.89
2023-03-15T06:59:17.455Z,10.84
2023-03-15T07:01:45.043Z,10.74
2023-03-15T07:04:12.795Z,10.83
2023-03-15T07:06:40.498Z,10.94
2023-03-15T07:09:08.718Z,11.15
2023-03-15T07:11:37.237Z,11.07
2023-03-15T07:14:04.800Z,11.15
2023-03-15T07:16:32.869Z,11.49
2023-03-15T07:19:01.870Z,11.82
2023-03-15T07:21:29.572Z,12.14
2023-03-15T07:23:58.123Z,12.45
2023-03-15T07:26:26.592Z,12.66
2023-03-15T07:28:54.624Z,12.87
2023-03-15T07:31:22.439Z,12.88
2023-03-15T07:33:50.116Z,13.15
2023-03-15T07:36:18.014Z,13.34
2023-03-15T07:38:45.639Z,13.42
2023-03-15T07:41:13.699Z,13.37
2023-03-15T07:43:50.334Z,13.60
2023-03-15T07:46:20.037Z,13.79
2023-03-15T07:48:47.907Z,13.88
2023-03-15T07:51:16.626Z,14.07
2023-03-15T07:53:44.720Z,14.16
2023-03-15T07:56:12.956Z,14.25
2023-03-15T07:58:41.429Z,14.48
2023-03-15T08:01:09.431Z,14.65
2023-03-15T08:03:37.835Z,14.85
2023-03-15T08:06:05.836Z,14.74
2023-03-15T08:08:34.083Z,14.74
2023-03-15T08:11:03.209Z,14.60
2023-03-15T08:13:31.839Z,14.37
2023-03-15T08:16:00.015Z,14.16
2023-03-15T08:18:31.205Z,14.46
2023-03-15T08:20:59.281Z,14.54
2023-03-15T08:23:27.136Z,14.85
2023-03-15T08:25:55.432Z,15.16
2023-03-15T08:28:23.380Z,15.09
2023-03-15T08:30:51.398Z,14.76
2023-03-15T08:33:19.079Z,14.65
2023-03-15T08:35:52.076Z,14.61
2023-03-15T08:38:19.806Z,14.64
2023-03-15T08:40:47.633Z,14.65
2023-03-15T08:43:15.771Z,14.58
2023-03-15T08:46:00.077Z,14.44
2023-03-15T08:48:28.486Z,14.34
2023-03-15T08:50:57.943Z,14.37
2023-03-15T08:53:26.107Z,14.29
2023-03-15T08:55:54.091Z,14.27
2023-03-15T08:58:21.971Z,14.22
2023-03-15T09:00:51.537Z,14.28
2023-03-15T09:03:22.626Z,14.19
2023-03-15T09:05:55.784Z,14.23
2023-03-15T09:08:25.268Z,14.21
2023-03-15T09:10:57.085Z,13.97
2023-03-15T09:13:26.020Z,13.78
2023-03-15T09:15:55.910Z,14.08
2023-03-15T09:18:25.078Z,14.02
2023-03-15T09:20:52.928Z,14.03
2023-03-15T09:23:20.948Z,14.30
2023-03-15T09:25:57.796Z,14.72
2023-03-15T09:28:26.639Z,14.61
2023-03-15T09:30:54.910Z,14.70
2023-03-15T09:33:26.163Z,14.78
2023-03-15T09:35:54.830Z,14.84
2023-03-15T09:38:24.214Z,14.92
2023-03-15T09:40:59.999Z,15.64
2023-03-15T09:43:49.322Z,16.04
2023-03-15T09:46:55.417Z,16.52
2023-03-15T09:49:26.215Z,16.51
2023-03-15T09:52:24.678Z,16.73
2023-03-15T09:55:01.017Z,18.80
2023-03-15T09:58:02.021Z,20.43
2023-03-15T10:00:52.810Z,21.30
2023-03-15T10:03:29.230Z,22.02
2023-03-15T10:06:05.651Z,22.46
2023-03-15T10:08:34.441Z,22.93
2023-03-15T10:11:45.536Z,21.47
2023-03-15T10:14:47.039Z,23.37
2023-03-15T10:17:24.561Z,23.67
2023-03-15T10:19:59.110Z,23.97
2023-03-15T10:22:46.965Z,24.62
2023-03-15T10:25:25.709Z,26.14
2023-03-15T10:28:31.275Z,26.08
2023-03-15T10:31:16.278Z,26.54
2023-03-15T10:33:48.622Z,26.67
2023-03-15T10:36:17.963Z,26.50
2023-03-15T10:38:48.432Z,25.58
2023-03-15T10:41:38.023Z,23.45
2023-03-15T10:44:16.599Z,24.92
2023-03-15T10:47:22.547Z,22.38
2023-03-15T10:49:57.333Z,20.68
2023-03-15T10:52:32.043Z,19.23
2023-03-15T10:55:21.997Z,18.65
2023-03-15T10:57:56.612Z,17.72
2023-03-15T11:00:31.951Z,18.56
2023-03-15T11:03:02.629Z,18.54
2023-03-15T11:05:41.677Z,18.44
2023-03-15T11:08:16.009Z,21.68
2023-03-15T11:10:45.410Z,22.19
2023-03-15T11:13:20.738Z,23.30
2023-03-15T11:15:53.141Z,21.04
2023-03-15T11:18:29.603Z,17.45
2023-03-15T11:20:58.723Z,16.36
2023-03-15T11:23:35.302Z,15.67
2023-03-15T11:26:04.133Z,15.76
2023-03-15T11:28:35.801Z,16.79
2023-03-15T11:31:05.494Z,19.60
2023-03-15T11:33:58.582Z,20.33
2023-03-15T11:36:32.230Z,20.99
2023-03-15T11:39:03.850Z,21.23
2023-03-15T11:41:51.328Z,18.78
2023-03-15T11:44:22.491Z,19.06
2023-03-15T11:46:57.556Z,16.90
2023-03-15T11:49:38.588Z,17.09
2023-03-15T11:52:07.523Z,16.83
2023-03-15T11:54:35.674Z,16.63
2023-03-15T11:57:29.421Z,18.45
2023-03-15T12:00:15.874Z,17.61
2023-03-15T12:02:55.707Z,18.14
2023-03-15T12:05:42.101Z,18.47
2023-03-15T12:08:44.874Z,17.78
2023-03-15T12:11:24.840Z,19.66
2023-03-15T12:13:59.017Z,18.41
2023-03-15T12:16:34.923Z,17.21
2023-03-15T12:19:19.412Z,17.93
2023-03-15T12:21:50.671Z,16.76
2023-03-15T12:24:31.157Z,17.00
2023-03-15T12:27:02.805Z,18.26
2023-03-15T12:29:36.198Z,17.90
2023-03-15T12:32:03.737Z,17.11
2023-03-15T12:34:37.600Z,16.98
2023-03-15T12:37:09.658Z,19.37
2023-03-15T12:39:41.998Z,18.14
2023-03-15T12:42:28.482Z,18.23
2023-03-15T12:45:16.757Z,18.39
2023-03-15T12:48:12.620Z,18.74
2023-03-15T12:50:47.087Z,18.45
2023-03-15T12:53:22.630Z,17.82
2023-03-15T12:55:54.121Z,18.18
2023-03-15T12:58:34.918Z,18.52
2023-03-15T13:01:06.817Z,18.93
2023-03-15T13:03:36.622Z,20.20
2023-03-15T13:06:13.986Z,21.60
2023-03-15T13:09:07.400Z,20.04
2023-03-15T13:12:36.691Z,19.75
2023-03-15T13:15:33.226Z,20.04
2023-03-15T13:18:18.048Z,21.52
2023-03-15T13:21:06.572Z,22.29
2023-03-15T13:23:35.064Z,20.91
2023-03-15T13:26:21.982Z,21.21
2023-03-15T13:28:52.272Z,22.48
2023-03-15T13:31:22.184Z,23.94
2023-03-15T13:34:06.414Z,23.71
2023-03-15T13:36:43.293Z,23.95
2023-03-15T13:39:24.994Z,25.13
2023-03-15T13:42:17.955Z,26.21
2023-03-15T13:44:45.702Z,27.89
2023-03-15T13:47:22.070Z,28.18
2023-03-15T13:49:52.986Z,24.85
2023-03-15T13:52:21.126Z,28.13
2023-03-15T13:54:49.896Z,25.66
2023-03-15T13:57:20.576Z,28.29
2023-03-15T13:59:57.673Z,28.81
2023-03-15T14:02:36.149Z,27.29
2023-03-15T14:05:11.414Z,28.26
2023-03-15T14:07:45.442Z,26.89
2023-03-15T14:10:18.822Z,29.77
2023-03-15T14:12:46.568Z,30.48
2023-03-15T14:15:16.221Z,30.60
2023-03-15T14:17:58.882Z,28.71
2023-03-15T14:20:33.535Z,29.90
2023-03-15T14:23:04.518Z,31.09
2023-03-15T14:25:35.352Z,27.95
2023-03-15T14:28:05.590Z,30.66
2023-03-15T14:30:37.671Z,30.17
2023-03-15T14:33:09.598Z,30.93
2023-03-15T14:35:38.154Z,28.46
2023-03-15T14:38:21.321Z,27.47
2023-03-15T14:40:51.809Z,28.67
2023-03-15T14:43:20.291Z,26.99
2023-03-15T14:45:49.799Z,29.25
2023-03-15T14:48:32.066Z,29.89
2023-03-15T14:51:00.648Z,30.17
2023-03-15T14:53:35.006Z,27.81
2023-03-15T14:56:04.744Z,29.08
2023-03-15T14:58:32.681Z,28.88
2023-03-15T15:01:02.920Z,30.55
2023-03-15T15:03:33.379Z,28.38
2023-03-15T15:06:02.995Z,27.88
2023-03-15T15:08:32.482Z,27.88
2023-03-15T15:11:00.688Z,27.89
2023-03-15T15:13:30.435Z,29.46
2023-03-15T15:15:58.779Z,27.69
2023-03-15T15:18:29.300Z,27.88
2023-03-15T15:21:00.651Z,26.85
2023-03-15T15:23:31.550Z,26.91
2023-03-15T15:26:04.695Z,28.43
2023-03-15T15:28:36.914Z,28.77
2023-03-15T15:31:07.215Z,28.17
2023-03-15T15:33:35.617Z,28.52
2023-03-15T15:36:04.660Z,28.31
2023-03-15T15:38:39.068Z,25.43
2023-03-15T15:41:13.307Z,25.78
2023-03-15T15:43:42.054Z,25.73
2023-03-15T15:46:12.148Z,24.62
2023-03-15T15:48:42.039Z,23.08
2023-03-15T15:51:29.360Z,24.00
2023-03-15T15:54:00.249Z,23.78
2023-03-15T15:56:56.027Z,21.33
2023-03-15T15:59:25.840Z,19.01
2023-03-15T16:02:02.832Z,18.82
2023-03-15T16:04:32.651Z,17.88
2023-03-15T16:07:02.616Z,17.82
2023-03-15T16:09:35.841Z,16.98
2023-03-15T16:12:13.588Z,16.67
2023-03-15T16:14:42.182Z,16.80
2023-03-15T16:17:31.379Z,16.78
2023-03-15T16:19:59.077Z,16.12
2023-03-15T16:22:29.169Z,16.21
2023-03-15T16:24:58.096Z,15.67
2023-03-15T16:27:28.189Z,15.66
2023-03-15T16:29:56.437Z,15.99
2023-03-15T16:32:37.227Z,15.90
2023-03-15T16:35:16.270Z,15.47
2023-03-15T16:37:45.610Z,15.39
2023-03-15T16:40:26.637Z,15.29
2023-03-15T16:42:55.201Z,15.08
2023-03-15T16:45:24.352Z,15.06
2023-03-15T16:47:52.980Z,15.08
2023-03-15T16:50:20.958Z,15.01
2023-03-15T16:52:53.574Z,14.93
2023-03-15T16:55:28.604Z,14.85
2023-03-15T16:57:57.564Z,14.77
2023-03-15T17:00:26.102Z,14.81
2023-03-15T17:02:54.912Z,14.81
2023-03-15T17:05:24.808Z,14.84
2023-03-15T17:07:54.204Z,14.79
2023-03-15T17:10:25.640Z,14.69
2023-03-15T17:12:55.223Z,14.59
2023-03-15T17:15:26.333Z,14.41
2023-03-15T17:17:57.746Z,14.22
2023-03-15T17:20:29.877Z,14.17
2023-03-15T17:23:04.165Z,14.01
2023-03-15T17:25:33.048Z,13.97
2023-03-15T17:28:01.070Z,13.93
2023-03-15T17:30:32.143Z,13.99
2023-03-15T17:33:00.777Z,13.88
2023-03-15T17:35:33.748Z,13.70
2023-03-15T17:38:04.445Z,13.63
2023-03-15T17:40:36.440Z,13.65
2023-03-15T17:43:05.008Z,13.63
2023-03-15T17:45:34.816Z,13.61
2023-03-15T17:48:02.558Z,13.61
2023-03-15T17:50:33.693Z,13.71
2023-03-15T17:53:08.247Z,13.63
2023-03-15T17:55:36.495Z,13.53
2023-03-15T17:58:11.529Z,13.49
2023-03-15T18:00:39.235Z,13.38
2023-03-15T18:03:07.800Z,13.30
2023-03-15T18:05:35.505Z,13.34
2023-03-15T18:08:07.406Z,13.37
2023-03-15T18:10:38.186Z,13.32
2023-03-15T18:13:05.853Z,13.27
2023-03-15T18:15:34.063Z,13.22
2023-03-15T18:18:04.091Z,13.12
2023-03-15T18:20:33.983Z,13.11
2023-03-15T18:23:02.236Z,12.84
2023-03-15T18:25:33.177Z,12.86
2023-03-15T18:28:01.137Z,12.77
2023-03-15T18:30:31.565Z,12.83
2023-03-15T18:33:00.206Z,12.69
2023-03-15T18:35:31.707Z,12.69
2023-03-15T18:37:59.591Z,12.75
2023-03-15T18:40:30.475Z,12.77
2023-03-15T18:42:58.763Z,12.73
2023-03-15T18:45:30.120Z,12.67
2023-03-15T18:48:02.236Z,12.64
2023-03-15T18:50:30.976Z,12.51
2023-03-15T18:52:58.606Z,12.46
2023-03-15T18:55:26.848Z,12.61
2023-03-15T18:57:55.509Z,12.49
2023-03-15T19:00:29.857Z,12.36
2023-03-15T19:03:00.798Z,11.95
2023-03-15T19:05:30.810Z,12.04
2023-03-15T19:07:58.987Z,12.13
2023-03-15T19:10:27.569Z,12.27
2023-03-15T19:12:56.206Z,12.24
2023-03-15T19:15:24.158Z,12.08
2023-03-15T19:17:56.667Z,12.04
2023-03-15T19:20:24.662Z,11.98
2023-03-15T19:22:53.156Z,11.59
2023-03-15T19:25:22.089Z,11.48
2023-03-15T19:27:50.295Z,11.54
2023-03-15T19:30:21.212Z,11.56
2023-03-15T19:32:50.686Z,11.70
2023-03-15T19:35:20.168Z,11.63
2023-03-15T19:37:49.705Z,11.67
2023-03-15T19:40:20.128Z,11.71
2023-03-15T19:42:51.227Z,11.68
2023-03-15T19:45:19.495Z,11.69
2023-03-15T19:47:47.786Z,11.64
2023-03-15T19:50:15.792Z,11.75
2023-03-15T19:52:48.039Z,11.69
2023-03-15T19:55:18.852Z,11.47
2023-03-15T19:57:47.067Z,11.43
2023-03-15T20:00:17.210Z,11.31
2023-03-15T20:02:46.641Z,11.42
2023-03-15T20:05:18.017Z,11.45
2023-03-15T20:07:47.397Z,11.34
2023-03-15T20:10:15.617Z,11.09
2023-03-15T20:12:45.547Z,11.15
2023-03-15T20:15:16.440Z,11.11
2023-03-15T20:17:45.230Z,10.99
2023-03-15T20:20:14.686Z,10.95
2023-03-15T20:22:44.928Z,11.02
2023-03-15T20:25:14.942Z,10.96
2023-03-15T20:27:45.437Z,10.93
2023-03-15T20:30:14.872Z,10.94
2023-03-15T20:32:43.315Z,10.89
2023-03-15T20:35:12.277Z,10.85
2023-03-15T20:37:41.737Z,10.93
2023-03-15T20:40:14.616Z,10.88
2023-03-15T20:42:43.607Z,10.71
2023-03-15T20:45:14.749Z,10.73
2023-03-15T20:47:44.890Z,10.64
2023-03-15T20:50:14.513Z,10.66
2023-03-15T20:52:44.492Z,10.60
2023-03-15T20:55:15.117Z,10.55
2023-03-15T20:57:43.889Z,10.41
2023-03-15T21:00:19.344Z,10.43
2023-03-15T21:02:48.707Z,10.50
2023-03-15T21:05:18.126Z,10.41
2023-03-15T21:07:47.909Z,10.38
2023-03-15T21:10:17.494Z,10.32
2023-03-15T21:12:47.370Z,10.31
2023-03-15T21:15:18.065Z,10.15
2023-03-15T21:17:54.942Z,10.19
2023-03-15T21:20:22.997Z,10.17
2023-03-15T21:22:51.534Z,10.15
2023-03-15T21:25:19.819Z,10.17
2023-03-15T21:27:48.106Z,10.05
2023-03-15T21:30:16.037Z,10.00
2023-03-15T21:32:44.912Z,9.90
2023-03-15T21:35:14.091Z,9.86
2023-03-15T21:37:41.795Z,9.81
2023-03-15T21:40:12.902Z,9.64
2023-03-15T21:42:43.732Z,9.57
2023-03-15T21:45:12.519Z,9.57
2023-03-15T21:47:41.189Z,9.49
2023-03-15T21:50:11.354Z,9.35
2023-03-15T21:52:39.815Z,9.15
2023-03-15T21:55:09.429Z,8.83
2023-03-15T21:57:37.665Z,8.97
2023-03-15T22:00:11.662Z,8.90
2023-03-15T22:02:40.123Z,8.91
2023-03-15T22:05:08.972Z,8.98
2023-03-15T22:07:36.944Z,8.91
2023-03-15T22:10:06.011Z,8.88
2023-03-15T22:12:34.605Z,8.94
2023-03-15T22:15:06.341Z,9.01
2023-03-15T22:17:35.679Z,9.04
2023-03-15T22:20:09.312Z,9.13
2023-03-15T22:22:36.980Z,9.08
2023-03-15T22:25:04.957Z,9.09
2023-03-15T22:27:32.522Z,9.14
2023-03-15T22:30:00.782Z,9.06
2023-03-15T22:32:29.471Z,9.18
2023-03-15T22:34:57.364Z,9.29
2023-03-15T22:37:24.946Z,9.28
2023-03-15T22:39:52.598Z,9.23
2023-03-15T22:42:20.814Z,9.18
2023-03-15T22:44:48.983Z,9.15
2023-03-15T22:47:18.078Z,8.95
2023-03-15T22:49:45.724Z,8.96
2023-03-15T22:52:13.583Z,9.07
2023-03-15T22:54:43.952Z,9.07
2023-03-15T22:57:11.670Z,9.10
2023-03-15T22:59:39.498Z,9.05
2023-03-15T23:02:08.001Z,9.07
2023-03-15T23:04:36.292Z,8.93
2023-03-15T23:07:04.223Z,8.85
2023-03-15T23:09:41.669Z,8.80
2023-03-15T23:12:36.193Z,8.80
2023-03-15T23:15:05.417Z,8.80
2023-03-15T23:17:33.466Z,8.73
2023-03-15T23:20:01.482Z,8.75
2023-03-15T23:22:29.956Z,8.66
2023-03-15T23:24:58.728Z,8.64
2023-03-15T23:27:26.920Z,8.54
2023-03-15T23:29:55.479Z,8.58
2023-03-15T23:32:25.203Z,8.63
2023-03-15T23:34:53.886Z,8.65
2023-03-15T23:37:24.401Z,8.68
2023-03-15T23:39:53.494Z,8.68
2023-03-15T23:42:25.992Z,8.74
2023-03-15T23:44:55.644Z,8.69
2023-03-15T23:47:26.036Z,8.58
2023-03-15T23:49:54.173Z,8.63
2023-03-15T23:52:25.425Z,8.69
2023-03-15T23:54:54.076Z,8.69
2023-03-15T23:57:21.830Z,8.72
2023-03-15T23:59:50.170Z,8.78
